Time;durP1;ratioP1;P1;durP2;ratioP2;P2;SDS_P1;SDS_P2;PMS_P1;PMS_P2;Temp;Humidity;BMP_temperature;BMP_pressure;BME280_temperature;BME280_humidity;BME280_pressure;Samples;Min_cycle;Max_cycle;Signal;HPM_P1;HPM_P2
2022/12/21 00:01:25;;;;;;;1.15;0.20;;;19.50;58.30;;;;;;5090299;28;20046;-65
2022/12/21 00:03:56;;;;;;;1.77;0.30;;;19.50;58.40;;;;;;5084619;28;20036;-66
2022/12/21 00:06:24;;;;;;;1.27;0.30;;;19.50;58.40;;;;;;5069673;28;20087;-65
2022/12/21 00:08:54;;;;;;;1.20;0.10;;;19.50;58.50;;;;;;5081707;28;20086;-65
2022/12/21 00:11:22;;;;;;;1.23;0.30;;;19.50;58.50;;;;;;5069182;28;20064;-65
2022/12/21 00:13:49;;;;;;;0.40;0.30;;;19.50;58.50;;;;;;5069874;28;20529;-66
2022/12/21 00:16:20;;;;;;;0.68;0.28;;;19.50;58.60;;;;;;5084210;28;20128;-65
2022/12/21 00:18:47;;;;;;;0.47;0.20;;;19.50;58.70;;;;;;5088684;28;20044;-68
2022/12/21 00:21:17;;;;;;;0.35;0.17;;;19.50;59.30;;;;;;5075151;28;20142;-67
2022/12/21 00:23:46;;;;;;;3.40;0.52;;;19.50;58.70;;;;;;5078594;28;20044;-68
2022/12/21 00:26:16;;;;;;;0.20;0.13;;;19.50;58.80;;;;;;5088538;28;20066;-68
2022/12/21 00:28:43;;;;;;;3.38;0.30;;;19.50;58.80;;;;;;5088706;28;20124;-69
2022/12/21 00:31:12;;;;;;;0.75;0.20;;;19.50;58.80;;;;;;5088688;28;20105;-67
2022/12/21 00:33:41;;;;;;;1.88;0.10;;;19.50;58.80;;;;;;5088235;28;20048;-67
2022/12/21 00:36:11;;;;;;;1.15;0.30;;;19.50;58.90;;;;;;5088561;28;20694;-68
2022/12/21 00:38:40;;;;;;;0.95;0.40;;;19.50;58.90;;;;;;5089264;28;20058;-67
2022/12/21 00:41:11;;;;;;;1.52;0.20;;;19.50;58.90;;;;;;5089753;28;20692;-67
2022/12/21 00:43:40;;;;;;;0.68;0.57;;;19.50;58.90;;;;;;5089528;28;20062;-67
2022/12/21 00:46:10;;;;;;;1.38;0.30;;;19.50;58.90;;;;;;5087998;28;20143;-67
2022/12/21 00:48:38;;;;;;;2.58;0.22;;;19.50;58.90;;;;;;5089560;28;20059;-68
2022/12/21 00:51:06;;;;;;;2.95;0.20;;;19.50;58.90;;;;;;5087954;28;20048;-67
2022/12/21 00:53:34;;;;;;;0.65;0.35;;;19.50;59.00;;;;;;5085263;28;20063;-68
2022/12/21 00:56:04;;;;;;;2.25;0.20;;;19.50;59.00;;;;;;5068073;28;20060;-68
2022/12/21 00:58:32;;;;;;;2.20;0.28;;;19.50;59.10;;;;;;5067911;28;20461;-68
2022/12/21 01:01:01;;;;;;;0.43;0.30;;;19.50;59.10;;;;;;5069061;28;20040;-68
2022/12/21 01:03:28;;;;;;;0.88;0.30;;;19.50;59.10;;;;;;5074293;28;20396;-68
2022/12/21 01:05:56;;;;;;;1.48;0.50;;;19.40;59.00;;;;;;5089717;28;20044;-69
2022/12/21 01:08:25;;;;;;;0.80;0.30;;;19.50;59.10;;;;;;5088725;28;20054;-66
2022/12/21 01:10:57;;;;;;;2.05;0.50;;;19.40;59.00;;;;;;5089132;28;20040;-65
2022/12/21 01:13:26;;;;;;;6.80;0.30;;;19.40;59.10;;;;;;5087233;28;20055;-66
2022/12/21 01:15:54;;;;;;;2.55;0.20;;;19.40;59.10;;;;;;5087801;28;20117;-67
2022/12/21 01:18:21;;;;;;;9.15;0.73;;;19.40;59.20;;;;;;5087214;28;20511;-66
2022/12/21 01:20:50;;;;;;;2.42;0.25;;;19.40;59.20;;;;;;5088915;28;20142;-66
2022/12/21 01:23:18;;;;;;;3.53;0.40;;;19.40;59.20;;;;;;5086191;28;20044;-66
2022/12/21 01:25:46;;;;;;;0.50;0.10;;;19.50;59.30;;;;;;5088698;28;20071;-67
2022/12/21 01:28:14;;;;;;;1.75;0.47;;;19.40;59.20;;;;;;5088655;28;20086;-67
2022/12/21 01:30:43;;;;;;;0.80;0.20;;;19.40;59.20;;;;;;5088781;28;20089;-67
2022/12/21 01:33:15;;;;;;;0.60;0.10;;;19.50;59.30;;;;;;5087063;28;20052;-67
2022/12/21 01:35:43;;;;;;;1.88;0.13;;;19.40;59.30;;;;;;5087399;28;20047;-66
2022/12/21 01:38:11;;;;;;;0.20;0.10;;;19.40;59.20;;;;;;5093834;28;20048;-65
2022/12/21 01:40:39;;;;;;;0.45;0.32;;;19.40;59.20;;;;;;5107206;28;20073;-66
2022/12/21 01:43:39;;;;;;;0.20;0.20;;;19.50;59.20;;;;;;5084383;28;20133;-66
2022/12/21 01:46:13;;;;;;;0.10;0.10;;;19.50;59.20;;;;;;5068561;28;20079;-68
2022/12/21 01:48:45;;;;;;;0.32;0.10;;;19.40;59.20;;;;;;5050382;28;20041;-69
2022/12/21 01:51:13;;;;;;;0.13;0.10;;;19.40;59.20;;;;;;5067995;28;20052;-66
2022/12/21 01:53:47;;;;;;;0.20;0.20;;;19.40;59.20;;;;;;5068082;28;20059;-67
2022/12/21 01:56:17;;;;;;;0.52;0.30;;;19.40;59.20;;;;;;5066851;28;20139;-68
2022/12/21 01:58:45;;;;;;;0.10;0.10;;;19.40;59.20;;;;;;5067856;28;20162;-67
2022/12/21 02:01:13;;;;;;;0.45;0.20;;;19.40;59.20;;;;;;5066857;28;20123;-67
2022/12/21 02:03:46;;;;;;;0.52;0.10;;;19.40;59.10;;;;;;5076465;28;20055;-66
2022/12/21 02:06:19;;;;;;;3.28;0.17;;;19.40;59.10;;;;;;5088143;28;20036;-65
2022/12/21 02:08:47;;;;;;;0.85;0.20;;;19.40;59.10;;;;;;5087973;28;20044;-66
2022/12/21 02:11:15;;;;;;;0.60;0.10;;;19.40;59.10;;;;;;5086580;28;20078;-66
2022/12/21 02:13:42;;;;;;;1.13;0.25;;;19.40;59.10;;;;;;5088130;28;20793;-67
2022/12/21 02:16:23;;;;;;;0.10;0.10;;;19.40;59.00;;;;;;5097681;28;20062;-66
2022/12/21 02:19:22;;;;;;;0.15;0.10;;;19.40;59.00;;;;;;5102341;28;20059;-66
2022/12/21 02:21:54;;;;;;;0.10;0.10;;;19.40;59.00;;;;;;5067757;28;20512;-66
2022/12/21 02:24:55;;;;;;;0.60;0.10;;;19.40;59.00;;;;;;5086412;28;20091;-66
2022/12/21 02:28:04;;;;;;;0.20;0.20;;;19.40;58.90;;;;;;5005806;28;20076;-67
2022/12/21 02:30:53;;;;;;;0.10;0.10;;;19.40;58.80;;;;;;4988427;28;20046;-66
2022/12/21 02:33:29;;;;;;;0.10;0.10;;;19.30;58.80;;;;;;4985429;28;20042;-65
2022/12/21 02:36:08;;;;;;;0.20;0.10;;;19.30;58.80;;;;;;4969037;28;20077;-68
2022/12/21 02:38:47;;;;;;;0.30;0.10;;;19.30;58.80;;;;;;4985522;28;20046;-67
2022/12/21 02:41:28;;;;;;;0.38;0.10;;;19.30;58.70;;;;;;4969650;28;20248;-67
2022/12/21 02:44:13;;;;;;;0.10;0.10;;;19.30;58.70;;;;;;4986047;28;20526;-69
2022/12/21 02:46:53;;;;;;;0.10;0.10;;;19.30;59.20;;;;;;4986425;28;20691;-69
2022/12/21 02:49:28;;;;;;;0.90;0.00;;;19.30;58.70;;;;;;4969472;28;20101;-68
2022/12/21 02:52:02;;;;;;;0.10;0.05;;;19.20;58.60;;;;;;4969983;28;20062;-69
2022/12/21 02:54:29;;;;;;;0.10;0.10;;;19.20;58.60;;;;;;4969448;28;20054;-68
2022/12/21 02:56:58;;;;;;;0.52;0.10;;;19.20;58.50;;;;;;4969834;28;20208;-68
2022/12/21 02:59:29;;;;;;;0.13;0.10;;;19.20;58.50;;;;;;4969394;28;20073;-67
2022/12/21 03:02:32;;;;;;;0.30;0.00;;;19.20;58.50;;;;;;4969577;28;20051;-67
2022/12/21 03:05:38;;;;;;;0.10;0.10;;;19.20;58.40;;;;;;5084035;28;20044;-67
2022/12/21 03:08:16;;;;;;;0.88;0.03;;;19.20;58.40;;;;;;5087475;28;20045;-67
2022/12/21 03:10:55;;;;;;;1.10;0.20;;;19.10;58.50;;;;;;5087527;28;20522;-65
2022/12/21 03:13:34;;;;;;;0.10;0.05;;;19.10;58.50;;;;;;5086232;28;20048;-67
2022/12/21 03:16:09;;;;;;;0.80;0.10;;;19.10;58.50;;;;;;5087328;28;20582;-65
2022/12/21 03:18:49;;;;;;;0.10;0.10;;;19.10;58.50;;;;;;5102249;28;20083;-64
2022/12/21 03:21:22;;;;;;;0.00;0.00;;;19.10;58.50;;;;;;5082717;28;20047;-65
2022/12/21 03:23:57;;;;;;;0.10;0.10;;;19.10;58.50;;;;;;5065326;28;20052;-64
2022/12/21 03:26:29;;;;;;;0.52;0.00;;;19.00;58.40;;;;;;5067075;28;20406;-66
2022/12/21 03:29:00;;;;;;;0.10;0.10;;;19.00;58.40;;;;;;5067055;28;20959;-64
2022/12/21 03:31:31;;;;;;;0.90;0.90;;;19.00;58.40;;;;;;5067037;28;20102;-65
2022/12/21 03:34:06;;;;;;;0.32;0.03;;;19.00;58.40;;;;;;5076082;28;20071;-65
2022/12/21 03:36:40;;;;;;;0.05;0.03;;;19.00;58.40;;;;;;5087468;28;20058;-65
2022/12/21 03:39:10;;;;;;;0.20;0.20;;;19.00;58.40;;;;;;5086915;28;20474;-67
2022/12/21 03:41:42;;;;;;;0.50;0.00;;;19.00;58.40;;;;;;5087182;28;20048;-67
2022/12/21 03:44:15;;;;;;;0.10;0.10;;;19.00;58.40;;;;;;5087001;28;20040;-65
2022/12/21 03:46:48;;;;;;;0.10;0.10;;;19.00;58.50;;;;;;5086770;28;20075;-65
2022/12/21 03:49:21;;;;;;;0.00;0.00;;;19.00;58.50;;;;;;5090704;28;20067;-64
2022/12/21 03:51:52;;;;;;;0.00;0.00;;;19.00;58.40;;;;;;5090996;28;20138;-65
2022/12/21 03:54:28;;;;;;;0.10;0.00;;;18.90;58.40;;;;;;5087306;28;20058;-65
2022/12/21 03:56:57;;;;;;;0.47;0.00;;;18.90;58.30;;;;;;5077163;28;20055;-67
2022/12/21 03:59:24;;;;;;;0.28;0.08;;;18.90;59.00;;;;;;5076042;28;20040;-65
2022/12/21 04:02:06;;;;;;;0.10;0.03;;;18.90;58.40;;;;;;5085168;28;20066;-66
2022/12/21 04:04:42;;;;;;;0.90;0.15;;;18.90;58.30;;;;;;5068492;28;20489;-66
2022/12/21 04:07:10;;;;;;;;;;;18.90;58.40;;;;;;5078622;28;20048;-65
2022/12/21 04:09:38;;;;;;;0.00;0.00;;;18.80;58.40;;;;;;5087248;28;20404;-65
2022/12/21 04:14:51;;;;;;;3.20;0.00;;;18.90;58.60;;;;;;5089338;28;20047;-63
2022/12/21 04:17:18;;;;;;;1.33;0.00;;;18.80;58.40;;;;;;5087674;28;20064;-62
2022/12/21 04:19:58;;;;;;;5.28;0.10;;;18.80;58.40;;;;;;5082313;28;20048;-63
2022/12/21 04:28:09;;;;;;;0.40;0.00;;;18.90;59.00;;;;;;5087315;28;20044;-62
2022/12/21 04:30:37;;;;;;;0.70;0.00;;;18.90;59.10;;;;;;5090306;28;20055;-62
2022/12/21 04:33:06;;;;;;;4.68;0.00;;;18.90;59.20;;;;;;5089607;28;20093;-62
2022/12/21 04:35:35;;;;;;;0.10;0.10;;;19.00;59.30;;;;;;5086441;28;20047;-69
2022/12/21 04:38:01;;;;;;;0.00;0.00;;;19.00;59.20;;;;;;5080727;28;20104;-71
2022/12/21 04:40:29;;;;;;;0.00;0.00;;;19.00;59.10;;;;;;5091135;28;20044;-67
2022/12/21 04:42:57;;;;;;;0.38;0.00;;;19.10;59.10;;;;;;5089622;28;20048;-70
2022/12/21 04:45:24;;;;;;;0.00;0.00;;;19.10;59.00;;;;;;5090141;28;20054;-63
2022/12/21 04:47:53;;;;;;;0.00;0.00;;;19.10;58.90;;;;;;5089517;28;20048;-66
2022/12/21 04:50:20;;;;;;;0.80;0.00;;;19.20;59.00;;;;;;5089644;28;20044;-66
2022/12/21 04:52:48;;;;;;;0.05;0.00;;;19.30;59.80;;;;;;5085439;28;20124;-66
2022/12/21 04:55:15;;;;;;;0.00;0.00;;;19.40;59.20;;;;;;5088646;28;20051;-65
2022/12/21 04:57:42;;;;;;;0.55;0.00;;;19.50;59.00;;;;;;5075302;28;20143;-66
2022/12/21 05:00:11;;;;;;;0.10;0.10;;;19.60;58.90;;;;;;5089458;28;20048;-70
2022/12/21 05:02:38;;;;;;;0.13;0.00;;;19.80;58.70;;;;;;5090593;28;20043;-67
2022/12/21 05:05:05;;;;;;;0.88;0.00;;;20.00;58.50;;;;;;5089037;28;20047;-66
2022/12/21 05:07:32;;;;;;;1.23;0.00;;;20.10;58.20;;;;;;5088539;28;20036;-62
2022/12/21 05:10:01;;;;;;;0.10;0.00;;;20.20;58.00;;;;;;5088477;28;20127;-56
2022/12/21 05:12:28;;;;;;;0.10;0.00;;;20.20;57.70;;;;;;5087094;28;20043;-61
2022/12/21 05:14:55;;;;;;;0.43;0.00;;;20.30;57.60;;;;;;5088845;28;20048;-62
2022/12/21 05:17:22;;;;;;;0.20;0.00;;;20.40;57.30;;;;;;5088663;28;20040;-61
2022/12/21 05:19:49;;;;;;;0.00;0.00;;;20.50;57.20;;;;;;5086032;28;20090;-61
2022/12/21 05:22:16;;;;;;;1.65;0.00;;;20.60;57.10;;;;;;5087140;28;20050;-61
2022/12/21 05:24:44;;;;;;;0.00;0.00;;;20.70;57.00;;;;;;5076847;28;20044;-60
2022/12/21 05:27:12;;;;;;;0.00;0.00;;;20.70;56.90;;;;;;5083114;28;20120;-60
2022/12/21 05:29:39;;;;;;;0.10;0.00;;;20.80;56.90;;;;;;5079702;28;20064;-60
2022/12/21 05:32:06;;;;;;;0.00;0.00;;;20.90;56.80;;;;;;5088390;28;20066;-63
2022/12/21 05:34:33;;;;;;;0.00;0.00;;;20.90;56.70;;;;;;5088174;28;20050;-64
2022/12/21 05:37:00;;;;;;;2.22;0.00;;;21.00;56.70;;;;;;5086802;28;20044;-58
2022/12/21 05:39:28;;;;;;;0.20;0.20;;;21.00;56.50;;;;;;5072168;28;20056;-61
2022/12/21 05:41:55;;;;;;;0.00;0.00;;;21.00;56.50;;;;;;5087404;28;20801;-72
2022/12/21 05:44:23;;;;;;;1.20;0.00;;;21.10;56.30;;;;;;5088885;28;20051;-66
2022/12/21 05:46:50;;;;;;;0.00;0.00;;;21.10;56.30;;;;;;5084229;28;20051;-70
2022/12/21 05:49:17;;;;;;;0.00;0.00;;;21.20;56.30;;;;;;5090349;28;20066;-62
2022/12/21 05:51:47;;;;;;;1.38;0.00;;;21.20;56.20;;;;;;5090127;28;20048;-67
2022/12/21 05:54:14;;;;;;;1.27;0.00;;;21.30;56.20;;;;;;5083925;28;20040;-63
2022/12/21 05:56:42;;;;;;;0.63;0.00;;;21.40;56.10;;;;;;5077089;28;20032;-65
2022/12/21 05:59:09;;;;;;;0.00;0.00;;;21.40;56.10;;;;;;5085817;28;20520;-63
2022/12/21 06:01:39;;;;;;;0.10;0.00;;;21.40;56.00;;;;;;5087821;28;20040;-64
2022/12/21 06:04:06;;;;;;;1.98;0.00;;;21.50;56.00;;;;;;5088504;28;20530;-62
2022/12/21 06:06:33;;;;;;;0.00;0.00;;;21.50;55.80;;;;;;5089388;28;20044;-65
2022/12/21 06:09:00;;;;;;;0.00;0.00;;;21.50;55.80;;;;;;5087597;28;20094;-61
2022/12/21 06:11:28;;;;;;;0.32;0.00;;;21.50;55.60;;;;;;5078925;28;20036;-64
2022/12/21 06:13:55;;;;;;;0.90;0.00;;;21.60;55.70;;;;;;5068862;28;20556;-65
2022/12/21 06:16:27;;;;;;;0.05;0.00;;;21.60;55.70;;;;;;5069923;28;20533;-63
2022/12/21 06:18:56;;;;;;;0.00;0.00;;;21.60;55.80;;;;;;5085556;28;20040;-63
2022/12/21 06:21:24;;;;;;;0.00;0.00;;;21.60;55.80;;;;;;5086072;28;20039;-61
2022/12/21 06:23:51;;;;;;;0.10;0.00;;;21.70;55.70;;;;;;5088121;28;20570;-61
2022/12/21 06:26:19;;;;;;;1.00;0.00;;;21.70;55.50;;;;;;5087869;28;20127;-63
2022/12/21 06:28:51;;;;;;;0.00;0.00;;;21.70;55.40;;;;;;5086042;28;20521;-62
2022/12/21 06:31:20;;;;;;;0.55;0.00;;;21.70;55.30;;;;;;5087523;28;20109;-63
2022/12/21 06:33:47;;;;;;;0.10;0.00;;;21.70;55.30;;;;;;5090225;28;20506;-63
2022/12/21 06:36:16;;;;;;;0.57;0.00;;;21.70;55.30;;;;;;5098010;28;20039;-62
2022/12/21 06:38:43;;;;;;;0.00;0.00;;;21.80;55.30;;;;;;5088375;28;20056;-62
2022/12/21 06:41:13;;;;;;;0.10;0.00;;;21.80;55.20;;;;;;5070808;28;20045;-63
2022/12/21 06:43:41;;;;;;;0.28;0.10;;;21.80;55.20;;;;;;5087875;28;20044;-61
2022/12/21 06:46:10;;;;;;;0.10;0.00;;;21.80;55.30;;;;;;5087605;28;20156;-61
2022/12/21 06:48:39;;;;;;;0.10;0.00;;;21.80;55.40;;;;;;5087785;28;20515;-61
2022/12/21 06:51:08;;;;;;;0.68;0.00;;;21.80;55.40;;;;;;5081006;28;20505;-62
2022/12/21 06:53:38;;;;;;;1.73;0.00;;;21.80;55.40;;;;;;5078185;28;20028;-65
2022/12/21 06:56:07;;;;;;;1.08;0.00;;;21.80;55.40;;;;;;5078362;28;20105;-70
2022/12/21 06:58:35;;;;;;;4.97;0.50;;;21.80;55.50;;;;;;5088247;28;20063;-60
2022/12/21 07:01:06;;;;;;;4.80;1.15;;;21.80;55.70;;;;;;5088293;28;20044;-61
2022/12/21 07:03:33;;;;;;;10.27;0.57;;;21.80;55.70;;;;;;5087776;28;20131;-61
2022/12/21 07:06:00;;;;;;;3.70;0.38;;;21.80;55.50;;;;;;5088423;28;20036;-61
2022/12/21 07:08:28;;;;;;;2.42;0.40;;;21.80;55.30;;;;;;5081587;28;20504;-60
2022/12/21 07:11:00;;;;;;;2.35;0.20;;;21.90;54.80;;;;;;5082555;28;20105;-61
2022/12/21 07:13:28;;;;;;;2.03;0.20;;;21.80;54.40;;;;;;5078739;28;20132;-60
2022/12/21 07:15:56;;;;;;;3.38;0.20;;;21.80;54.20;;;;;;5084847;28;20036;-61
2022/12/21 07:18:24;;;;;;;3.42;0.17;;;21.80;54.10;;;;;;5085278;28;20135;-61
2022/12/21 07:20:57;;;;;;;3.22;0.22;;;21.70;54.40;;;;;;5081298;28;20156;-61
2022/12/21 07:23:25;;;;;;;1.17;0.10;;;21.70;53.40;;;;;;5086351;28;20089;-59
2022/12/21 07:25:52;;;;;;;2.28;0.10;;;21.60;53.20;;;;;;5089051;28;20497;-62
2022/12/21 07:28:21;;;;;;;3.47;0.15;;;21.60;53.10;;;;;;5091330;28;20130;-61
2022/12/21 07:30:48;;;;;;;1.58;0.20;;;21.50;53.10;;;;;;5090226;28;20044;-61
2022/12/21 07:33:15;;;;;;;1.15;0.10;;;21.40;53.00;;;;;;5088782;28;20044;-63
2022/12/21 07:35:43;;;;;;;4.55;0.30;;;21.40;53.00;;;;;;5090020;28;20051;-62
2022/12/21 07:38:10;;;;;;;0.20;0.10;;;21.30;53.00;;;;;;5090291;28;20044;-62
2022/12/21 07:40:38;;;;;;;1.92;0.13;;;21.20;52.90;;;;;;5089848;28;20499;-62
2022/12/21 07:43:08;;;;;;;3.88;0.10;;;21.20;53.00;;;;;;5079690;28;20454;-62
2022/12/21 07:46:01;;;;;;;0.32;0.10;;;21.10;53.10;;;;;;5027242;28;20057;-62
2022/12/21 07:48:29;;;;;;;1.63;0.10;;;21.00;53.30;;;;;;5027465;28;20152;-62
2022/12/21 07:50:56;;;;;;;0.40;0.35;;;21.00;53.40;;;;;;5027108;28;20136;-62
2022/12/21 07:53:23;;;;;;;3.50;0.73;;;20.90;53.50;;;;;;5026819;28;20042;-52
2022/12/21 07:55:50;;;;;;;2.85;0.38;;;20.90;53.70;;;;;;5026738;28;20045;-63
2022/12/21 07:58:17;;;;;;;0.63;0.10;;;20.80;53.70;;;;;;5040223;28;20060;-62
2022/12/21 08:00:45;;;;;;;1.70;0.15;;;20.70;53.60;;;;;;5043234;28;20053;-61
2022/12/21 08:03:13;;;;;;;4.80;0.17;;;20.70;53.70;;;;;;5046630;28;20569;-62
2022/12/21 08:05:41;;;;;;;0.10;0.00;;;20.60;53.80;;;;;;5046400;28;20048;-62
2022/12/21 08:08:08;;;;;;;0.52;0.10;;;20.60;53.90;;;;;;5046134;28;20128;-62
2022/12/21 08:10:35;;;;;;;0.32;0.20;;;20.60;53.90;;;;;;5045837;28;20049;-61
2022/12/21 08:13:02;;;;;;;1.05;0.10;;;20.50;53.90;;;;;;5046502;28;20045;-63
2022/12/21 08:15:30;;;;;;;2.08;0.85;;;20.50;54.00;;;;;;5046458;28;20052;-61
2022/12/21 08:17:57;;;;;;;0.28;0.10;;;20.40;54.00;;;;;;5046620;28;20075;-62
2022/12/21 08:20:25;;;;;;;0.68;0.10;;;20.40;54.00;;;;;;5046028;28;20049;-63
2022/12/21 08:22:53;;;;;;;1.75;0.20;;;20.40;54.00;;;;;;5041893;28;20076;-61
2022/12/21 08:25:20;;;;;;;1.08;0.15;;;20.30;54.00;;;;;;5075557;28;20221;-60
2022/12/21 08:27:47;;;;;;;0.20;0.10;;;20.30;54.10;;;;;;5074835;28;20174;-70
2022/12/21 08:30:15;;;;;;;2.03;0.20;;;20.20;53.90;;;;;;5085544;28;20563;-70
2022/12/21 08:32:42;;;;;;;7.50;0.65;;;20.30;54.30;;;;;;5097707;28;20044;-66
2022/12/21 08:35:10;;;;;;;4.40;0.20;;;20.20;54.30;;;;;;5093593;28;20068;-70
2022/12/21 08:37:38;;;;;;;2.40;0.32;;;20.30;54.30;;;;;;5095905;28;20052;-69
2022/12/21 08:40:06;;;;;;;3.92;1.38;;;20.40;54.30;;;;;;5091442;28;20056;-69
2022/12/21 08:42:33;;;;;;;3.53;0.85;;;20.40;54.40;;;;;;5094291;28;20064;-74
2022/12/21 08:45:01;;;;;;;6.38;0.17;;;20.50;54.30;;;;;;5078430;28;20531;-71
2022/12/21 08:47:28;;;;;;;0.73;0.30;;;20.60;54.30;;;;;;5082143;28;20081;-71
2022/12/21 08:49:55;;;;;;;0.75;0.75;;;20.60;54.20;;;;;;5089168;28;20046;-63
2022/12/21 08:52:22;;;;;;;3.65;0.35;;;20.70;54.20;;;;;;5089410;28;20048;-67
2022/12/21 08:54:51;;;;;;;1.55;0.32;;;20.70;54.00;;;;;;5091607;28;20085;-71
2022/12/21 08:57:18;;;;;;;4.13;0.15;;;20.80;53.90;;;;;;5092037;28;20105;-64
2022/12/21 08:59:45;;;;;;;1.45;0.10;;;20.80;53.80;;;;;;5084699;28;20823;-68
2022/12/21 09:02:12;;;;;;;1.23;0.28;;;20.80;53.70;;;;;;5083795;28;20476;-69
2022/12/21 09:04:39;;;;;;;2.30;0.20;;;20.90;53.70;;;;;;5088261;28;20122;-72
2022/12/21 09:07:06;;;;;;;2.33;0.10;;;20.90;53.60;;;;;;5062689;28;20081;-67
2022/12/21 09:09:33;;;;;;;0.30;0.10;;;20.90;53.50;;;;;;5091082;28;20032;-66
2022/12/21 09:12:02;;;;;;;0.55;0.20;;;21.00;53.40;;;;;;5093098;28;20044;-68
2022/12/21 09:14:31;;;;;;;2.20;0.45;;;21.00;53.20;;;;;;5092447;28;20043;-69
2022/12/21 09:16:58;;;;;;;0.10;0.10;;;21.00;53.00;;;;;;5093166;28;20105;-65
2022/12/21 09:19:26;;;;;;;1.55;0.10;;;21.10;53.00;;;;;;5082584;28;20083;-69
2022/12/21 09:21:53;;;;;;;5.85;0.32;;;21.10;52.90;;;;;;5090951;28;20111;-70
2022/12/21 09:24:20;;;;;;;1.65;0.63;;;21.20;52.80;;;;;;5093348;28;20567;-71
2022/12/21 09:26:47;;;;;;;0.60;0.47;;;21.10;52.60;;;;;;5094111;28;20046;-70
2022/12/21 09:29:16;;;;;;;1.00;0.20;;;21.20;52.70;;;;;;5086425;28;20028;-69
2022/12/21 09:31:43;;;;;;;2.70;0.10;;;21.20;52.70;;;;;;5092482;28;20108;-71
2022/12/21 09:34:10;;;;;;;0.40;0.40;;;21.30;53.30;;;;;;5085286;28;20086;-71
2022/12/21 09:36:38;;;;;;;0.90;0.30;;;21.30;52.50;;;;;;5086143;28;20126;-73
2022/12/21 09:39:05;;;;;;;3.55;0.10;;;21.40;52.50;;;;;;5089335;28;20043;-70
2022/12/21 09:41:39;;;;;;;1.70;0.63;;;21.40;52.40;;;;;;5089406;28;20047;-70
2022/12/21 09:44:40;;;;;;;2.63;0.22;;;21.50;52.20;;;;;;5090491;28;20115;-70
2022/12/21 09:47:14;;;;;;;2.90;0.10;;;21.60;52.00;;;;;;5077677;28;20101;-68
2022/12/21 09:49:49;;;;;;;4.20;0.20;;;21.60;51.80;;;;;;5087159;28;20126;-62
2022/12/21 09:52:22;;;;;;;3.78;0.10;;;21.60;51.70;;;;;;5084497;28;20048;-65
2022/12/21 09:54:57;;;;;;;0.25;0.10;;;21.70;51.60;;;;;;5079387;28;20072;-58
2022/12/21 09:57:30;;;;;;;0.30;0.10;;;21.70;51.40;;;;;;5086209;28;20059;-62
2022/12/21 09:59:59;;;;;;;1.05;0.10;;;21.70;51.10;;;;;;5076992;28;20041;-60
2022/12/21 10:02:45;;;;;;;1.65;0.10;;;21.70;51.10;;;;;;5081088;28;20039;-60
2022/12/21 10:05:22;;;;;;;0.38;0.10;;;21.80;51.00;;;;;;5070391;28;20524;-61
2022/12/21 10:08:21;;;;;;;0.80;0.17;;;21.70;50.90;;;;;;5086991;28;20052;-61
2022/12/21 10:10:56;;;;;;;0.75;0.10;;;21.80;50.80;;;;;;5086918;28;20048;-60
2022/12/21 10:13:35;;;;;;;2.17;0.10;;;21.70;50.80;;;;;;5087095;28;20119;-60
2022/12/21 10:16:15;;;;;;;0.50;0.15;;;21.70;50.70;;;;;;5086377;28;20109;-60
2022/12/21 10:18:51;;;;;;;0.20;0.10;;;21.70;50.60;;;;;;5085543;28;20452;-68
2022/12/21 10:21:30;;;;;;;0.20;0.10;;;21.70;50.70;;;;;;5087175;28;20089;-69
2022/12/21 10:23:58;;;;;;;1.45;0.17;;;21.70;50.70;;;;;;5095304;28;20501;-65
2022/12/21 10:26:27;;;;;;;2.97;0.73;;;21.70;50.70;;;;;;5083974;28;20039;-65
2022/12/21 10:29:01;;;;;;;1.48;0.10;;;21.70;50.70;;;;;;5084882;28;20036;-64
2022/12/21 10:31:37;;;;;;;2.13;0.20;;;21.80;50.80;;;;;;5102182;27;20143;-65
2022/12/21 10:34:13;;;;;;;1.52;0.20;;;21.80;50.70;;;;;;5079118;28;20417;-64
2022/12/21 10:36:40;;;;;;;5.70;0.73;;;21.80;50.80;;;;;;5081253;28;20044;-67
2022/12/21 10:39:14;;;;;;;3.70;0.30;;;21.70;50.70;;;;;;5086443;28;20290;-65
2022/12/21 10:41:44;;;;;;;1.65;0.20;;;21.80;50.70;;;;;;5085663;28;20044;-65
2022/12/21 10:44:13;;;;;;;4.13;0.20;;;21.70;50.60;;;;;;5086402;28;20036;-64
2022/12/21 10:46:41;;;;;;;3.50;0.28;;;21.70;50.60;;;;;;5086393;28;20520;-62
2022/12/21 10:49:17;;;;;;;1.95;0.10;;;21.80;50.50;;;;;;5084292;28;20040;-63
2022/12/21 10:51:45;;;;;;;2.05;0.10;;;21.80;50.20;;;;;;5081961;28;20064;-63
2022/12/21 10:54:12;;;;;;;5.53;0.20;;;21.70;50.00;;;;;;5085448;28;20135;-63
2022/12/21 10:56:45;;;;;;;1.73;0.13;;;21.70;50.00;;;;;;5089180;28;20098;-66
2022/12/21 10:59:19;;;;;;;1.85;0.10;;;21.70;49.80;;;;;;5091173;28;20059;-65
2022/12/21 11:01:48;;;;;;;4.40;0.25;;;21.70;49.80;;;;;;5090944;28;20500;-63
2022/12/21 11:04:18;;;;;;;3.40;0.10;;;21.70;49.80;;;;;;5090632;28;20392;-61
2022/12/21 11:07:00;;;;;;;4.70;0.10;;;21.60;49.60;;;;;;5090378;28;20083;-61
2022/12/21 11:09:35;;;;;;;1.85;0.68;;;21.70;49.60;;;;;;5090752;28;20044;-62
2022/12/21 11:12:19;;;;;;;0.20;0.10;;;21.60;50.20;;;;;;5090838;28;20420;-62
2022/12/21 11:14:46;;;;;;;1.20;0.25;;;21.60;49.40;;;;;;5090735;28;20043;-62
2022/12/21 11:17:20;;;;;;;3.15;0.20;;;21.60;49.70;;;;;;5090447;28;20044;-62
2022/12/21 11:19:49;;;;;;;0.90;0.10;;;21.60;49.50;;;;;;5090276;28;20154;-63
2022/12/21 11:22:25;;;;;;;2.10;0.10;;;21.60;49.50;;;;;;5090614;28;20047;-62
2022/12/21 11:24:55;;;;;;;;;;;21.60;49.40;;;;;;5090856;28;20446;-66
2022/12/21 11:27:25;;;;;;;3.47;0.20;;;21.60;49.60;;;;;;5090358;28;19959;-66
2022/12/21 11:29:55;;;;;;;5.35;1.65;;;21.50;49.70;;;;;;5090390;28;20138;-66
2022/12/21 11:32:24;;;;;;;3.30;0.20;;;21.60;49.80;;;;;;5089885;28;20048;-66
2022/12/21 11:34:53;;;;;;;3.20;0.17;;;21.60;49.80;;;;;;5090581;28;20040;-65
2022/12/21 11:37:32;;;;;;;4.57;0.20;;;21.60;49.70;;;;;;5090930;28;20041;-66
2022/12/21 11:40:07;;;;;;;1.67;0.10;;;21.60;49.60;;;;;;5091054;28;20062;-66
2022/12/21 11:42:34;;;;;;;1.08;0.20;;;21.50;49.50;;;;;;5090856;28;20044;-66
2022/12/21 11:45:20;;;;;;;0.10;0.10;;;21.50;49.50;;;;;;5090558;28;20043;-67
2022/12/21 11:48:05;;;;;;;0.40;0.20;;;21.50;49.40;;;;;;5090604;28;20048;-66
2022/12/21 11:50:51;;;;;;;2.10;0.10;;;21.50;49.40;;;;;;5088236;28;20045;-69
2022/12/21 11:53:54;;;;;;;1.77;0.10;;;21.50;49.10;;;;;;5083058;28;20111;-67
2022/12/21 11:56:30;;;;;;;0.73;0.20;;;21.50;48.90;;;;;;5094814;28;20040;-68
2022/12/21 11:59:29;;;;;;;0.20;0.10;;;21.40;49.10;;;;;;5092487;28;20033;-71
2022/12/21 12:02:12;;;;;;;1.90;0.60;;;21.50;49.20;;;;;;5078753;28;20536;-64
2022/12/21 12:04:53;;;;;;;4.88;0.10;;;21.50;49.30;;;;;;5089148;28;20044;-60
2022/12/21 12:07:41;;;;;;;3.30;0.95;;;21.50;49.40;;;;;;5078763;28;20041;-56
2022/12/21 12:10:33;;;;;;;5.03;0.28;;;21.50;49.40;;;;;;5082894;28;20051;-58
2022/12/21 12:13:07;;;;;;;0.65;0.10;;;21.50;49.50;;;;;;5073364;28;20135;-61
2022/12/21 12:15:46;;;;;;;1.02;0.30;;;21.40;49.60;;;;;;5088790;28;20123;-60
2022/12/21 12:18:36;;;;;;;3.60;0.10;;;21.40;49.70;;;;;;5086129;28;20130;-63
2022/12/21 12:21:36;;;;;;;0.20;0.10;;;21.50;49.80;;;;;;5085007;28;20036;-64
2022/12/21 12:24:29;;;;;;;0.82;0.10;;;21.50;49.70;;;;;;5076647;28;20082;-61
2022/12/21 12:27:09;;;;;;;4.18;0.22;;;21.40;49.70;;;;;;5082275;28;20048;-61
2022/12/21 12:29:59;;;;;;;11.93;0.95;;;21.50;49.80;;;;;;5099715;28;20119;-61
2022/12/21 12:32:48;;;;;;;2.70;0.10;;;21.50;49.70;;;;;;5082134;28;20057;-61
2022/12/21 12:35:41;;;;;;;2.20;0.10;;;21.40;49.50;;;;;;5088733;28;20044;-61
2022/12/21 12:38:15;;;;;;;2.67;0.10;;;21.40;49.50;;;;;;5003224;28;20144;-67
2022/12/21 12:40:57;;;;;;;6.63;0.30;;;21.40;49.60;;;;;;4993913;28;20547;-70
2022/12/21 12:43:40;;;;;;;17.33;0.50;;;21.50;49.70;;;;;;5008072;28;20211;-65
2022/12/21 12:46:16;;;;;;;2.92;0.10;;;21.40;49.70;;;;;;4966293;28;20074;-61
2022/12/21 12:48:56;;;;;;;4.22;0.65;;;21.40;49.70;;;;;;4996747;28;20111;-57
2022/12/21 12:51:30;;;;;;;0.40;0.20;;;21.50;49.80;;;;;;5003394;28;20058;-58
2022/12/21 12:54:05;;;;;;;1.25;0.30;;;21.40;49.80;;;;;;4991958;28;20057;-59
2022/12/21 12:56:41;;;;;;;0.70;0.10;;;21.50;49.80;;;;;;4994613;28;20141;-61
2022/12/21 12:59:15;;;;;;;2.05;0.22;;;21.50;49.80;;;;;;4991472;28;20112;-62
2022/12/21 13:01:48;;;;;;;2.20;0.30;;;21.50;49.90;;;;;;4992749;28;20061;-58
2022/12/21 13:04:41;;;;;;;0.95;0.10;;;21.50;50.10;;;;;;4994780;28;20053;-54
2022/12/21 13:07:16;;;;;;;1.30;0.20;;;21.50;50.10;;;;;;4965180;28;20140;-63
2022/12/21 13:09:54;;;;;;;0.50;0.10;;;21.50;50.30;;;;;;4994790;28;20108;-56
2022/12/21 13:12:29;;;;;;;0.68;0.28;;;21.50;50.40;;;;;;4995650;28;20042;-56
2022/12/21 13:15:00;;;;;;;1.85;0.10;;;21.50;50.60;;;;;;5027123;28;20044;-57
2022/12/21 13:17:38;;;;;;;0.68;0.13;;;21.40;50.70;;;;;;5084075;28;20040;-63
2022/12/21 13:20:08;;;;;;;0.40;0.20;;;21.50;50.70;;;;;;5088053;28;20133;-64
2022/12/21 13:22:37;;;;;;;2.47;0.40;;;21.40;50.70;;;;;;5094949;28;20072;-68